Time;durP1;ratioP1;P1;durP2;ratioP2;P2;SDS_P1;SDS_P2;PMS_P1;PMS_P2;Temp;Humidity;BMP_temperature;BMP_pressure;BME280_temperature;BME280_humidity;BME280_pressure;Samples;Min_cycle;Max_cycle;Signal;HPM_P1;HPM_P2
2023/06/15 00:00:18;;;;;;;17.45;8.10;;;;;;;18.48;51.31;101698.94;5051678;28;20501;-54
2023/06/15 00:02:43;;;;;;;13.77;7.80;;;;;;;18.45;51.64;101696.81;5051838;28;20104;-53
2023/06/15 00:05:09;;;;;;;14.02;7.85;;;;;;;18.38;52.06;101697.34;5051707;28;20493;-53
2023/06/15 00:07:35;;;;;;;14.95;7.82;;;;;;;18.33;52.36;101703.13;5050288;28;20025;-54
2023/06/15 00:10:00;;;;;;;14.10;7.68;;;;;;;18.28;52.76;101688.50;5051528;28;20043;-53
2023/06/15 00:12:26;;;;;;;16.00;7.70;;;;;;;18.27;52.33;101696.09;5051601;28;20025;-53
2023/06/15 00:14:51;;;;;;;14.93;7.63;;;;;;;18.22;52.97;101693.47;5052031;28;20070;-52
2023/06/15 00:17:17;;;;;;;15.38;7.78;;;;;;;18.21;53.10;101691.84;5051873;28;20033;-53
2023/06/15 00:19:44;;;;;;;16.17;7.80;;;;;;;18.17;53.31;101696.50;5051951;28;20100;-54
2023/06/15 00:22:15;;;;;;;15.52;7.60;;;;;;;18.09;53.75;101696.16;5051467;28;20045;-54
2023/06/15 00:24:43;;;;;;;16.80;7.70;;;;;;;18.07;54.10;101697.69;5051544;28;20365;-51
2023/06/15 00:27:10;;;;;;;14.27;7.78;;;;;;;18.06;54.06;101699.66;5051502;28;20106;-53
2023/06/15 00:29:35;;;;;;;16.85;8.30;;;;;;;18.03;54.04;101697.53;5051645;28;20025;-52
2023/06/15 00:32:00;;;;;;;15.13;7.85;;;;;;;17.99;54.31;101702.19;5051489;28;20036;-53
2023/06/15 00:34:26;;;;;;;15.45;7.82;;;;;;;17.97;54.13;101704.47;5051411;28;20167;-52
2023/06/15 00:36:51;;;;;;;14.85;7.50;;;;;;;17.93;54.47;101701.50;5051372;28;20104;-54
2023/06/15 00:39:18;;;;;;;15.90;7.82;;;;;;;17.95;54.17;101711.56;5051359;28;20851;-53
2023/06/15 00:41:43;;;;;;;17.73;7.60;;;;;;;17.84;55.20;101703.53;5051577;28;20036;-54
2023/06/15 00:44:10;;;;;;;16.48;7.43;;;;;;;17.80;55.30;101710.94;5051411;28;20025;-53
2023/06/15 00:46:36;;;;;;;14.80;7.35;;;;;;;17.80;55.03;101708.13;5051551;28;20025;-51
2023/06/15 00:49:03;;;;;;;17.70;8.32;;;;;;;17.75;55.11;101709.13;5051472;28;20040;-51
2023/06/15 00:51:28;;;;;;;14.27;7.50;;;;;;;17.73;55.74;101713.44;5054191;28;20029;-53
2023/06/15 00:53:54;;;;;;;16.27;8.13;;;;;;;17.71;55.92;101722.13;5055086;28;20698;-54
2023/06/15 00:56:19;;;;;;;16.05;8.32;;;;;;;17.69;55.73;101710.50;5055115;28;20396;-54
2023/06/15 00:58:45;;;;;;;16.55;7.82;;;;;;;17.63;56.20;101714.59;5053617;28;20021;-52
2023/06/15 01:01:10;;;;;;;15.95;8.05;;;;;;;17.61;56.38;101711.34;5055095;28;20079;-51
2023/06/15 01:03:35;;;;;;;16.02;8.27;;;;;;;17.59;56.76;101714.44;5055028;28;20056;-52
2023/06/15 01:06:11;;;;;;;16.73;8.10;;;;;;;17.54;57.09;101713.81;5054906;28;20445;-53
2023/06/15 01:08:38;;;;;;;15.10;8.10;;;;;;;17.48;57.35;101717.94;5054728;28;20033;-52
2023/06/15 01:11:03;;;;;;;16.58;8.10;;;;;;;17.46;57.57;101715.47;5053447;28;20395;-53
2023/06/15 01:13:29;;;;;;;16.55;8.15;;;;;;;17.35;58.16;101709.41;5054689;28;20029;-54
2023/06/15 01:15:59;;;;;;;16.75;8.13;;;;;;;17.30;58.35;101710.38;5055162;28;20422;-52
2023/06/15 01:18:25;;;;;;;16.35;7.93;;;;;;;17.28;58.01;101709.94;5054797;28;20025;-53
2023/06/15 01:20:53;;;;;;;15.98;8.45;;;;;;;17.19;58.79;101706.31;5054420;28;20051;-52
2023/06/15 01:23:43;;;;;;;17.60;8.55;;;;;;;17.19;57.57;101705.47;5053238;28;20374;-54
2023/06/15 01:26:11;;;;;;;15.63;8.27;;;;;;;17.15;58.66;101719.31;5054554;28;20538;-53
2023/06/15 01:28:40;;;;;;;18.35;8.93;;;;;;;17.02;59.52;101718.31;5054519;28;20392;-53
2023/06/15 01:31:06;;;;;;;15.23;8.20;;;;;;;16.97;59.95;101727.69;5054399;28;20025;-53
2023/06/15 01:33:32;;;;;;;16.17;8.38;;;;;;;16.91;59.93;101717.78;5054303;28;20044;-53
2023/06/15 01:35:58;;;;;;;16.35;8.60;;;;;;;16.90;60.17;101715.31;5054282;28;20025;-52
2023/06/15 01:38:28;;;;;;;15.75;8.13;;;;;;;16.89;59.77;101724.84;5054215;28;20025;-53
2023/06/15 01:40:54;;;;;;;15.85;8.40;;;;;;;16.87;59.46;101721.56;5054056;28;20339;-53
2023/06/15 01:43:25;;;;;;;16.25;7.95;;;;;;;16.84;60.16;101721.09;5054002;28;20029;-53
2023/06/15 01:45:52;;;;;;;17.02;8.60;;;;;;;16.80;60.28;101731.25;5054009;28;20025;-54
2023/06/15 01:48:18;;;;;;;16.95;8.63;;;;;;;16.78;60.72;101727.97;5052745;28;20029;-54
2023/06/15 01:50:43;;;;;;;16.00;8.05;;;;;;;16.73;60.24;101722.56;5054000;28;20079;-53
2023/06/15 01:53:09;;;;;;;16.35;8.40;;;;;;;16.74;60.30;101723.34;5053855;28;20033;-53
2023/06/15 01:55:34;;;;;;;17.00;8.45;;;;;;;16.66;60.84;101723.03;5053822;28;20078;-54
2023/06/15 01:58:00;;;;;;;16.52;8.70;;;;;;;16.61;60.95;101725.16;5053836;28;20025;-53
2023/06/15 02:00:26;;;;;;;16.70;8.43;;;;;;;16.60;61.49;101729.09;5053774;28;20055;-53
2023/06/15 02:02:51;;;;;;;14.95;8.10;;;;;;;16.54;61.63;101722.84;5052920;28;20068;-50
2023/06/15 02:05:17;;;;;;;17.75;8.20;;;;;;;16.53;61.55;101718.44;5053587;28;20065;-49
2023/06/15 02:07:43;;;;;;;17.60;8.65;;;;;;;16.53;61.51;101726.81;5053423;28;20108;-54
2023/06/15 02:10:09;;;;;;;17.02;8.75;;;;;;;16.51;61.51;101720.72;5053444;28;20112;-53
2023/06/15 02:12:34;;;;;;;18.02;8.40;;;;;;;16.45;61.96;101720.03;5053161;28;20033;-50
2023/06/15 02:15:03;;;;;;;15.75;8.15;;;;;;;16.41;62.22;101733.00;5053380;28;20503;-50
2023/06/15 02:17:33;;;;;;;16.08;8.05;;;;;;;16.36;62.03;101727.56;5053555;28;20044;-53
2023/06/15 02:19:59;;;;;;;16.77;8.43;;;;;;;16.33;62.41;101731.84;5053432;28;20456;-49
2023/06/15 02:22:25;;;;;;;18.42;8.55;;;;;;;16.33;62.54;101731.84;5052038;28;20136;-52
2023/06/15 02:24:50;;;;;;;15.68;8.40;;;;;;;16.27;63.06;101730.34;5053297;28;20366;-51
2023/06/15 02:27:15;;;;;;;18.20;9.57;;;;;;;16.20;63.33;101730.78;5053336;28;20108;-53
2023/06/15 02:29:41;;;;;;;17.10;8.80;;;;;;;16.14;63.94;101734.88;5052979;28;20106;-52
2023/06/15 02:32:07;;;;;;;17.65;8.60;;;;;;;16.15;63.27;101738.53;5053119;28;20417;-52
2023/06/15 02:34:32;;;;;;;15.43;8.48;;;;;;;16.08;64.13;101736.19;5053295;28;20021;-52
2023/06/15 02:36:58;;;;;;;15.63;8.50;;;;;;;16.09;63.61;101745.38;5053148;28;20431;-51
2023/06/15 02:39:24;;;;;;;15.85;8.50;;;;;;;16.06;63.67;101744.88;5053216;28;20587;-51
2023/06/15 02:41:49;;;;;;;18.13;9.20;;;;;;;15.99;64.24;101749.28;5053038;28;20036;-52
2023/06/15 02:44:15;;;;;;;18.27;9.50;;;;;;;15.97;64.89;101740.41;5052937;28;20028;-53
2023/06/15 02:46:40;;;;;;;18.30;8.93;;;;;;;15.96;64.57;101745.19;5052905;28;20044;-51
2023/06/15 02:49:06;;;;;;;18.42;8.93;;;;;;;15.96;63.89;101747.97;5052869;28;20333;-53
2023/06/15 02:51:32;;;;;;;17.85;9.02;;;;;;;15.95;64.46;101751.06;5052925;28;20029;-53
2023/06/15 02:53:58;;;;;;;18.23;9.57;;;;;;;15.90;64.91;101747.28;5052683;28;20064;-51
2023/06/15 02:56:23;;;;;;;17.90;9.57;;;;;;;15.89;64.67;101747.56;5052615;28;20052;-53
2023/06/15 02:58:53;;;;;;;16.92;8.93;;;;;;;15.89;64.50;101747.56;5052549;28;20032;-53
2023/06/15 03:01:23;;;;;;;17.65;9.40;;;;;;;15.83;65.62;101752.44;5052832;28;20109;-53
2023/06/15 03:03:51;;;;;;;17.85;9.63;;;;;;;15.82;64.88;101750.78;5052649;28;20021;-52
2023/06/15 03:06:18;;;;;;;17.83;9.30;;;;;;;15.80;65.51;101750.31;5052529;28;20503;-54
2023/06/15 03:08:44;;;;;;;19.25;9.32;;;;;;;15.75;65.99;101745.69;5052532;28;20540;-53
2023/06/15 03:11:10;;;;;;;18.15;9.43;;;;;;;15.73;65.41;101741.53;5052545;28;20029;-53
2023/06/15 03:13:35;;;;;;;17.50;9.18;;;;;;;15.70;65.86;101748.59;5052198;28;20021;-53
2023/06/15 03:16:01;;;;;;;17.52;8.95;;;;;;;15.75;65.27;101744.84;5052457;28;20085;-53
2023/06/15 03:18:29;;;;;;;18.30;9.98;;;;;;;15.71;66.10;101749.44;5052104;28;20028;-54
2023/06/15 03:20:57;;;;;;;17.65;9.23;;;;;;;15.68;66.05;101748.09;5051908;28;20036;-53
2023/06/15 03:23:23;;;;;;;19.60;9.35;;;;;;;15.65;66.41;101751.53;5052203;28;20123;-53
2023/06/15 03:25:52;;;;;;;17.88;9.65;;;;;;;15.66;65.92;101752.34;5051894;28;20027;-53
2023/06/15 03:28:27;;;;;;;18.30;9.80;;;;;;;15.66;66.60;101755.97;5052284;28;20032;-54
2023/06/15 03:30:53;;;;;;;18.15;9.73;;;;;;;15.60;67.15;101754.44;5052223;28;20115;-54
2023/06/15 03:33:21;;;;;;;17.13;9.23;;;;;;;15.60;66.97;101755.28;5052106;28;20043;-53
2023/06/15 03:35:49;;;;;;;19.20;9.63;;;;;;;15.60;67.01;101755.28;5050761;28;20170;-55
2023/06/15 03:38:17;;;;;;;21.25;9.80;;;;;;;15.64;67.31;101760.19;5051876;28;20028;-54
2023/06/15 03:40:43;;;;;;;18.05;9.55;;;;;;;15.67;66.49;101754.00;5051955;28;20036;-54
2023/06/15 03:43:11;;;;;;;18.35;10.13;;;;;;;15.65;66.97;101757.13;5051916;28;20025;-54
2023/06/15 03:45:37;;;;;;;18.60;9.63;;;;;;;15.70;67.17;101758.94;5051991;28;20111;-53
2023/06/15 03:48:03;;;;;;;20.25;9.73;;;;;;;15.97;65.93;101757.16;5051950;28;20021;-50
2023/06/15 03:50:29;;;;;;;19.48;10.00;;;;;;;16.33;65.26;101751.38;5052042;28;20588;-54
2023/06/15 03:52:54;;;;;;;17.90;9.80;;;;;;;16.69;64.10;101746.69;5050387;28;20029;-54
2023/06/15 03:55:20;;;;;;;18.33;9.50;;;;;;;16.89;62.89;101745.25;5050588;28;20041;-54
2023/06/15 03:57:45;;;;;;;17.50;9.48;;;;;;;16.93;62.91;101746.25;5051980;28;20035;-53
2023/06/15 04:00:11;;;;;;;21.27;10.18;;;;;;;16.87;62.84;101747.53;5051774;28;20048;-54
2023/06/15 04:02:36;;;;;;;17.65;9.38;;;;;;;16.67;63.51;101749.81;5051838;28;20090;-54
2023/06/15 04:05:03;;;;;;;19.63;9.90;;;;;;;16.55;63.65;101762.78;5051714;28;20068;-53
2023/06/15 04:07:29;;;;;;;20.67;10.15;;;;;;;16.41;64.17;101768.50;5051495;28;20108;-50
2023/06/15 04:09:54;;;;;;;18.88;10.18;;;;;;;16.29;65.22;101767.13;5051698;28;20029;-56
2023/06/15 04:12:20;;;;;;;18.40;9.50;;;;;;;16.30;64.39;101760.41;5051680;28;20086;-54
2023/06/15 04:14:46;;;;;;;18.85;9.80;;;;;;;16.22;65.48;101758.41;5051879;28;20059;-54
2023/06/15 04:17:12;;;;;;;19.63;10.18;;;;;;;16.14;66.30;101765.59;5051695;28;20037;-53
2023/06/15 04:19:37;;;;;;;19.02;9.88;;;;;;;16.13;66.03;101769.53;5051724;28;20040;-51
2023/06/15 04:22:03;;;;;;;20.63;10.63;;;;;;;16.11;66.65;101769.00;5050194;28;20057;-53
2023/06/15 04:24:28;;;;;;;19.83;10.60;;;;;;;16.16;66.13;101766.09;5051439;28;20495;-51
2023/06/15 04:26:53;;;;;;;20.40;10.40;;;;;;;16.20;66.12;101767.09;5055220;28;20036;-52
2023/06/15 04:29:18;;;;;;;19.48;10.50;;;;;;;16.28;65.75;101773.84;5055522;28;20044;-52
2023/06/15 04:31:46;;;;;;;20.55;11.23;;;;;;;16.30;66.29;101774.38;5055506;28;20090;-52
2023/06/15 04:34:12;;;;;;;20.33;10.80;;;;;;;16.33;66.16;101768.16;5055546;28;20087;-52
2023/06/15 04:36:39;;;;;;;22.35;11.02;;;;;;;16.33;66.61;101775.69;5055368;28;20036;-54
2023/06/15 04:39:04;;;;;;;24.73;11.82;;;;;;;16.41;66.04;101772.09;5055498;28;20036;-53
2023/06/15 04:41:31;;;;;;;24.13;12.05;;;;;;;16.41;66.07;101783.25;5055249;28;20025;-54
2023/06/15 04:43:56;;;;;;;21.83;12.35;;;;;;;16.45;66.23;101773.09;5055415;28;20029;-53
2023/06/15 04:46:23;;;;;;;23.65;12.40;;;;;;;16.50;66.01;101786.09;5055242;28;20029;-49
2023/06/15 04:48:49;;;;;;;29.15;13.15;;;;;;;16.57;65.86;101785.63;5055206;28;20029;-53
2023/06/15 04:51:15;;;;;;;26.48;13.52;;;;;;;16.67;65.43;101783.34;5055142;28;20546;-50
2023/06/15 04:53:43;;;;;;;24.63;12.80;;;;;;;16.74;65.36;101787.63;5054974;28;20025;-53
2023/06/15 04:56:10;;;;;;;22.10;12.50;;;;;;;16.83;64.87;101786.50;5055090;28;20047;-52
2023/06/15 04:58:35;;;;;;;24.27;12.48;;;;;;;16.88;64.51;101785.53;5054920;28;20025;-53
2023/06/15 05:01:01;;;;;;;21.95;12.70;;;;;;;16.97;64.76;101783.59;5055218;28;20092;-53
2023/06/15 05:03:27;;;;;;;23.73;13.23;;;;;;;17.01;64.77;101792.16;5055043;28;20029;-53
2023/06/15 05:05:52;;;;;;;21.67;13.25;;;;;;;17.04;64.34;101787.88;5054785;28;20051;-52
2023/06/15 05:08:18;;;;;;;24.15;12.88;;;;;;;17.10;64.76;101792.13;5054728;28;20028;-52
2023/06/15 05:10:44;;;;;;;21.58;13.00;;;;;;;17.17;64.08;101792.50;5054592;28;20112;-53
2023/06/15 05:13:09;;;;;;;25.92;13.18;;;;;;;17.21;64.49;101790.66;5054640;28;20028;-54
2023/06/15 05:15:35;;;;;;;26.17;13.57;;;;;;;17.28;64.29;101796.63;5054754;28;20056;-54
2023/06/15 05:18:00;;;;;;;23.45;13.60;;;;;;;17.33;64.31;101801.22;5054683;28;20473;-56
2023/06/15 05:20:25;;;;;;;23.20;14.10;;;;;;;17.41;64.40;101796.75;5054356;28;20029;-55
2023/06/15 05:22:51;;;;;;;22.98;13.15;;;;;;;17.50;64.08;101793.97;5054405;28;20076;-55
2023/06/15 05:25:17;;;;;;;22.73;13.30;;;;;;;17.60;63.70;101791.63;5054256;28;20025;-54
2023/06/15 05:27:43;;;;;;;23.42;13.00;;;;;;;17.73;63.17;101795.41;5054439;28;20025;-54
2023/06/15 05:30:08;;;;;;;23.65;13.20;;;;;;;17.76;62.87;101794.75;5054340;28;20025;-55
2023/06/15 05:32:37;;;;;;;22.65;13.05;;;;;;;17.86;63.04;101798.34;5054369;28;20028;-54
2023/06/15 05:35:07;;;;;;;24.40;13.95;;;;;;;17.91;63.07;101796.19;5054236;28;20033;-54
2023/06/15 05:37:36;;;;;;;23.45;13.30;;;;;;;18.03;62.87;101792.72;5053071;28;20032;-55
2023/06/15 05:40:03;;;;;;;23.65;14.77;;;;;;;18.12;62.46;101800.25;5052872;28;20496;-54
2023/06/15 05:42:29;;;;;;;25.33;14.73;;;;;;;18.15;62.08;101803.22;5052826;28;20040;-54
2023/06/15 05:44:54;;;;;;;26.50;15.32;;;;;;;18.17;62.32;101803.72;5053940;28;20410;-54
2023/06/15 05:47:20;;;;;;;24.27;15.10;;;;;;;18.20;61.80;101802.22;5054100;28;20029;-53
2023/06/15 05:49:45;;;;;;;26.20;15.10;;;;;;;18.30;62.23;101804.66;5054083;28;20025;-54
2023/06/15 05:52:10;;;;;;;24.45;15.50;;;;;;;18.34;61.29;101814.03;5052629;28;20104;-53
2023/06/15 05:54:36;;;;;;;25.85;15.13;;;;;;;18.46;61.37;101810.50;5054100;28;20104;-54
2023/06/15 05:57:01;;;;;;;25.08;15.23;;;;;;;18.62;60.76;101810.75;5053954;28;20029;-54
2023/06/15 05:59:27;;;;;;;25.67;15.93;;;;;;;18.71;60.25;101810.69;5053930;28;20025;-53
2023/06/15 06:01:53;;;;;;;25.40;16.08;;;;;;;18.75;59.79;101805.25;5053900;28;20025;-55
2023/06/15 06:04:18;;;;;;;22.20;16.33;;;;;;;18.81;60.22;101807.50;5053750;28;20029;-55
2023/06/15 06:06:43;;;;;;;23.65;15.98;;;;;;;18.87;60.18;101805.31;5053747;28;20488;-53
2023/06/15 06:09:08;;;;;;;22.00;15.05;;;;;;;19.09;60.12;101812.63;5053516;28;20178;-54
2023/06/15 06:11:35;;;;;;;22.95;15.95;;;;;;;19.11;59.44;101803.88;5053580;28;20426;-56
2023/06/15 06:14:00;;;;;;;24.45;17.23;;;;;;;19.21;59.35;101799.84;5053768;28;20452;-55
2023/06/15 06:16:25;;;;;;;25.52;17.77;;;;;;;19.23;59.24;101806.75;5053728;28;20044;-54
2023/06/15 06:18:51;;;;;;;25.23;18.20;;;;;;;19.30;58.74;101803.41;5053359;28;20116;-56
2023/06/15 06:21:16;;;;;;;24.75;17.00;;;;;;;19.45;58.50;101804.75;5053433;28;20036;-56
2023/06/15 06:23:41;;;;;;;28.35;17.05;;;;;;;19.46;58.41;101800.78;5053625;28;20087;-53
2023/06/15 06:26:07;;;;;;;25.90;17.60;;;;;;;19.55;58.13;101801.53;5053148;28;20029;-55
2023/06/15 06:28:32;;;;;;;22.17;15.73;;;;;;;19.66;57.10;101809.50;5036357;22;20219;-63
2023/06/15 06:30:57;;;;;;;25.48;14.57;;;;;;;19.80;56.87;101799.63;4984813;28;20045;-67
2023/06/15 06:33:23;;;;;;;26.25;14.70;;;;;;;19.97;55.61;101808.25;4990552;28;20046;-67
2023/06/15 06:35:48;;;;;;;22.83;14.95;;;;;;;20.05;55.43;101812.94;4974778;28;20459;-72
2023/06/15 06:38:13;;;;;;;22.48;14.90;;;;;;;20.11;54.41;101814.34;4976289;28;20638;-69
2023/06/15 06:40:41;;;;;;;22.55;14.60;;;;;;;20.07;55.04;101808.59;4973323;28;20033;-70
2023/06/15 06:43:06;;;;;;;24.50;15.73;;;;;;;19.99;55.00;101811.50;4973505;28;20474;-71
2023/06/15 06:45:31;;;;;;;23.85;16.63;;;;;;;20.11;54.89;101811.53;4973119;28;20046;-71
2023/06/15 06:47:58;;;;;;;24.85;15.40;;;;;;;20.25;54.46;101812.03;5001048;28;20113;-71
2023/06/15 06:50:23;;;;;;;24.05;15.90;;;;;;;20.37;55.07;101811.22;4991561;28;20324;-71
2023/06/15 06:52:48;;;;;;;23.75;16.33;;;;;;;20.47;54.34;101809.94;4992427;28;20049;-71
2023/06/15 06:55:13;;;;;;;24.20;15.80;;;;;;;20.63;53.81;101812.84;4992389;28;20030;-71
2023/06/15 06:57:39;;;;;;;23.52;16.25;;;;;;;20.71;54.15;101813.91;4992381;28;20032;-71
2023/06/15 07:00:06;;;;;;;27.45;17.15;;;;;;;20.82;54.01;101812.31;4992241;28;20034;-72
2023/06/15 07:02:32;;;;;;;22.73;16.25;;;;;;;20.86;53.82;101810.41;4992004;28;20026;-72
2023/06/15 07:04:58;;;;;;;25.02;17.38;;;;;;;20.98;53.08;101817.19;4978789;28;20014;-72
2023/06/15 07:07:23;;;;;;;24.98;17.90;;;;;;;21.03;52.83;101817.78;4972707;28;20462;-71
2023/06/15 07:09:48;;;;;;;24.75;16.42;;;;;;;21.13;52.42;101815.63;4972933;28;20041;-71
2023/06/15 07:12:14;;;;;;;22.73;15.23;;;;;;;21.26;52.12;101811.59;4973151;28;20031;-71
2023/06/15 07:14:39;;;;;;;23.77;16.10;;;;;;;21.38;53.15;101815.56;4985987;28;20105;-74
2023/06/15 07:17:05;;;;;;;23.60;16.48;;;;;;;21.23;51.92;101820.78;4992502;28;20035;-73
2023/06/15 07:19:30;;;;;;;23.65;16.88;;;;;;;21.24;52.33;101816.78;4981974;28;20023;-73
2023/06/15 07:21:56;;;;;;;23.55;17.30;;;;;;;21.38;52.00;101816.38;4972758;28;20062;-73
2023/06/15 07:24:21;;;;;;;24.05;17.20;;;;;;;21.53;51.48;101808.34;4972368;28;20029;-74
2023/06/15 07:26:47;;;;;;;26.15;18.45;;;;;;;21.65;51.54;101811.16;4972362;28;20055;-72
2023/06/15 07:29:13;;;;;;;25.27;20.20;;;;;;;21.78;51.80;101814.72;4973691;28;20047;-72
2023/06/15 07:31:38;;;;;;;24.88;17.75;;;;;;;21.83;51.39;101806.00;4979643;28;20041;-72
2023/06/15 07:34:03;;;;;;;24.80;16.92;;;;;;;21.97;50.44;101811.19;4987409;28;20398;-73
2023/06/15 07:36:29;;;;;;;24.70;17.45;;;;;;;22.00;49.99;101809.66;5003860;28;20042;-72
2023/06/15 07:38:54;;;;;;;23.98;16.75;;;;;;;22.11;50.14;101814.41;4999592;28;20471;-72
2023/06/15 07:41:20;;;;;;;24.05;16.30;;;;;;;22.14;49.58;101812.84;4992644;28;20026;-73
2023/06/15 07:43:45;;;;;;;25.88;15.68;;;;;;;22.22;48.84;101823.13;4992890;28;20026;-73
2023/06/15 07:46:10;;;;;;;22.92;15.07;;;;;;;22.38;47.83;101806.22;4991995;28;20456;-71
2023/06/15 07:48:36;;;;;;;23.23;14.65;;;;;;;22.47;46.99;101819.34;4992594;28;20026;-73
2023/06/15 07:51:01;;;;;;;22.55;14.90;;;;;;;22.63;46.53;101813.69;4992851;28;20027;-73
2023/06/15 07:53:26;;;;;;;23.48;13.93;;;;;;;22.70;46.13;101811.84;4992809;28;20584;-72
2023/06/15 07:55:52;;;;;;;23.58;13.88;;;;;;;22.77;45.24;101807.56;5008168;28;20598;-73
2023/06/15 07:58:17;;;;;;;19.55;11.75;;;;;;;22.85;43.46;101813.00;4990905;28;20066;-72
2023/06/15 08:00:42;;;;;;;21.20;11.48;;;;;;;23.02;42.07;101813.78;4991915;28;20050;-73
2023/06/15 08:03:07;;;;;;;18.75;11.30;;;;;;;23.08;42.07;101820.75;4992443;28;20390;-72
2023/06/15 08:05:33;;;;;;;22.40;11.00;;;;;;;23.19;42.58;101815.41;4992673;28;20030;-73
2023/06/15 08:07:58;;;;;;;18.00;10.45;;;;;;;23.31;41.39;101811.63;4992642;28;20058;-73
2023/06/15 08:10:23;;;;;;;21.10;10.25;;;;;;;23.46;40.35;101812.72;4992305;28;20030;-73
2023/06/15 08:12:49;;;;;;;17.95;9.60;;;;;;;23.50;39.30;101816.44;4992475;28;20026;-73
2023/06/15 08:15:14;;;;;;;19.00;9.30;;;;;;;23.58;39.27;101814.56;4992376;28;20049;-73
2023/06/15 08:17:39;;;;;;;19.88;10.63;;;;;;;23.53;39.83;101813.66;4992302;28;20034;-71
2023/06/15 08:20:08;;;;;;;21.73;10.35;;;;;;;23.63;39.21;101814.25;5007152;28;20081;-72
2023/06/15 08:22:33;;;;;;;18.00;9.75;;;;;;;23.81;39.53;101801.28;4992265;28;20135;-73
2023/06/15 08:24:59;;;;;;;18.45;10.18;;;;;;;24.03;39.72;101809.41;4991919;28;20478;-72
2023/06/15 08:27:25;;;;;;;19.67;10.90;;;;;;;24.16;38.98;101812.84;4992356;28;20030;-72
2023/06/15 08:29:50;;;;;;;20.75;11.50;;;;;;;24.15;39.21;101806.38;5007389;28;20098;-72
2023/06/15 08:32:16;;;;;;;20.90;11.38;;;;;;;24.25;39.30;101817.06;4992021;28;20137;-72
2023/06/15 08:34:42;;;;;;;20.05;10.63;;;;;;;24.35;38.96;101817.59;4991587;28;20072;-72
2023/06/15 08:37:09;;;;;;;25.85;10.20;;;;;;;24.17;37.84;101815.28;4991530;28;20031;-73
2023/06/15 08:39:34;;;;;;;18.90;10.13;;;;;;;24.17;38.50;101812.47;4991870;28;20113;-72
2023/06/15 08:42:02;;;;;;;19.80;10.02;;;;;;;24.27;37.49;101811.84;4991863;28;20101;-72
2023/06/15 08:44:30;;;;;;;20.08;9.80;;;;;;;24.42;38.04;101812.06;4990095;28;20121;-72
2023/06/15 08:46:56;;;;;;;19.52;9.80;;;;;;;24.55;38.47;101809.88;4991368;28;20030;-72
2023/06/15 08:49:23;;;;;;;21.38;10.07;;;;;;;24.60;36.16;101809.53;4990611;28;20022;-72
2023/06/15 08:51:49;;;;;;;18.63;9.77;;;;;;;24.48;36.79;101802.09;4982973;28;20126;-74
2023/06/15 08:54:18;;;;;;;18.42;9.85;;;;;;;24.45;37.86;101814.97;4980618;28;20035;-74
2023/06/15 08:56:43;;;;;;;17.70;9.15;;;;;;;24.55;37.32;101810.69;4982764;28;20023;-75
2023/06/15 08:59:08;;;;;;;19.08;10.00;;;;;;;24.47;36.42;101808.94;4989013;28;20033;-74
2023/06/15 09:01:40;;;;;;;20.45;9.90;;;;;;;24.58;37.02;101803.44;4977353;28;20045;-71
2023/06/15 09:04:07;;;;;;;17.98;9.68;;;;;;;24.71;36.90;101810.56;4979449;28;20471;-73
2023/06/15 09:06:32;;;;;;;19.25;9.63;;;;;;;24.90;36.63;101809.59;4976309;28;20027;-73
2023/06/15 09:08:57;;;;;;;19.30;9.57;;;;;;;25.10;35.89;101822.81;4982551;28;20391;-71
2023/06/15 09:11:23;;;;;;;22.10;9.57;;;;;;;25.23;35.36;101805.22;4980428;28;20019;-72
2023/06/15 09:13:50;;;;;;;18.33;9.38;;;;;;;25.21;34.98;101801.13;4984672;28;20029;-71
2023/06/15 09:16:15;;;;;;;17.48;9.00;;;;;;;25.15;34.99;101803.50;4976269;28;20060;-74
2023/06/15 09:18:43;;;;;;;18.45;9.48;;;;;;;25.25;33.92;101801.19;4975777;28;20438;-71
2023/06/15 09:21:14;;;;;;;18.38;9.35;;;;;;;25.57;34.36;101810.09;4973156;28;20022;-70
2023/06/15 09:23:41;;;;;;;20.85;9.35;;;;;;;25.82;34.25;101807.53;4974595;28;20114;-71
2023/06/15 09:26:07;;;;;;;16.90;8.85;;;;;;;25.67;32.97;101803.75;4974384;28;20121;-70
2023/06/15 09:28:33;;;;;;;16.77;8.90;;;;;;;25.73;33.02;101797.72;4974507;28;20062;-71
2023/06/15 09:30:59;;;;;;;18.35;9.23;;;;;;;25.88;33.00;101804.34;4973136;28;20031;-70
2023/06/15 09:33:25;;;;;;;16.65;8.60;;;;;;;26.11;32.97;101798.53;4973461;28;20086;-72
2023/06/15 09:35:56;;;;;;;17.55;9.38;;;;;;;26.37;33.29;101791.88;4974476;28;20030;-72
2023/06/15 09:38:21;;;;;;;17.40;8.52;;;;;;;26.74;32.20;101795.75;4974740;28;20086;-72
2023/06/15 09:40:46;;;;;;;16.42;8.88;;;;;;;27.09;31.77;101783.81;4973961;28;20039;-71
2023/06/15 09:43:13;;;;;;;16.95;8.98;;;;;;;27.27;31.04;101796.47;4974285;28;20037;-72
2023/06/15 09:45:51;;;;;;;17.25;9.27;;;;;;;27.40;31.51;101794.88;4974692;28;20031;-72
2023/06/15 09:48:17;;;;;;;18.38;9.30;;;;;;;27.26;31.32;101801.31;4972984;28;20078;-73
2023/06/15 09:50:42;;;;;;;18.58;9.45;;;;;;;27.40;30.91;101787.19;4974106;28;20030;-72
2023/06/15 09:53:11;;;;;;;18.35;9.32;;;;;;;27.79;30.84;101787.72;4974294;28;20022;-72
2023/06/15 09:55:43;;;;;;;18.60;10.05;;;;;;;28.02;30.53;101791.00;4974250;28;20082;-72
2023/06/15 09:58:09;;;;;;;18.52;9.80;;;;;;;28.09;29.44;101795.09;4974843;28;20043;-71
2023/06/15 10:00:36;;;;;;;17.35;9.40;;;;;;;28.09;29.15;101793.06;4974200;28;20042;-70
2023/06/15 10:03:03;;;;;;;17.73;9.10;;;;;;;27.55;29.19;101781.56;4974184;28;20052;-70
2023/06/15 10:05:32;;;;;;;16.73;8.45;;;;;;;27.35;29.31;101793.25;4974094;28;20027;-71
2023/06/15 10:08:01;;;;;;;19.05;9.15;;;;;;;27.21;29.96;101784.69;4973713;28;20038;-70
2023/06/15 10:10:28;;;;;;;17.65;9.35;;;;;;;26.91;30.02;101791.44;4973897;28;20043;-70
2023/06/15 10:12:57;;;;;;;17.42;8.98;;;;;;;26.76;29.93;101782.81;4974226;28;20105;-69
2023/06/15 10:15:24;;;;;;;18.02;9.02;;;;;;;26.82;29.73;101788.97;4973998;28;20509;-71
2023/06/15 10:17:52;;;;;;;19.10;9.10;;;;;;;27.03;30.54;101793.94;4973942;28;20023;-72
2023/06/15 10:20:19;;;;;;;18.05;8.65;;;;;;;27.39;30.12;101788.41;4973585;28;20800;-72
2023/06/15 10:23:09;;;;;;;19.73;9.30;;;;;;;27.59;30.31;101782.41;4972587;28;20182;-71
2023/06/15 10:25:36;;;;;;;17.42;8.98;;;;;;;27.74;29.74;101796.63;4973551;28;20050;-72
2023/06/15 10:28:11;;;;;;;18.70;9.38;;;;;;;27.83;29.69;101788.53;4973308;28;20117;-71
2023/06/15 10:30:49;;;;;;;19.55;8.25;;;;;;;27.76;30.30;101789.34;4973753;28;20108;-71
2023/06/15 10:33:46;;;;;;;16.25;8.40;;;;;;;27.68;30.21;101779.16;4972596;28;20133;-71
2023/06/15 10:36:28;;;;;;;17.20;8.40;;;;;;;27.45;30.14;101765.28;4973762;28;20062;-71
2023/06/15 10:39:14;;;;;;;18.88;9.23;;;;;;;27.57;30.55;101786.88;4973143;28;20066;-71
2023/06/15 10:41:40;;;;;;;17.73;8.85;;;;;;;27.85;29.36;101791.78;4973232;28;20177;-72
2023/06/15 10:44:05;;;;;;;19.38;9.10;;;;;;;28.14;29.53;101795.50;4973065;28;20026;-71
2023/06/15 10:46:33;;;;;;;20.10;9.70;;;;;;;28.29;29.09;101789.81;4973198;28;20041;-71
2023/06/15 10:49:07;;;;;;;18.50;9.85;;;;;;;28.20;29.53;101789.41;4973243;28;20042;-72
2023/06/15 10:51:39;;;;;;;17.90;9.05;;;;;;;28.26;28.44;101784.94;4973203;28;20043;-70
2023/06/15 10:54:05;;;;;;;17.42;8.80;;;;;;;27.91;29.54;101795.88;4973065;28;20117;-71
2023/06/15 10:56:31;;;;;;;17.25;8.68;;;;;;;27.63;29.31;101791.72;4973017;28;20163;-71
2023/06/15 10:59:07;;;;;;;18.75;8.85;;;;;;;27.19;29.88;101792.78;4972883;28;20034;-71
2023/06/15 11:01:33;;;;;;;17.42;8.75;;;;;;;27.11;30.00;101788.28;4972893;28;20448;-71
2023/06/15 11:04:00;;;;;;;20.27;9.10;;;;;;;26.69;30.36;101767.75;4972611;28;20041;-71
2023/06/15 11:06:33;;;;;;;20.52;10.07;;;;;;;26.72;30.44;101789.69;4972372;28;20045;-70
2023/06/15 11:09:03;;;;;;;;;;;;;;;26.98;31.21;101784.97;4973015;28;20102;-71
2023/06/15 11:11:28;;;;;;;16.75;8.63;;;;;;;27.37;30.83;101779.47;4972924;28;19969;-71